Terminal Aerodrome Forecast
Issued by NWS

Home | Current Version | Previous Version | Text Only | Print | Product List | Glossary On
Versions: 1 2 3 4 5 6 7 8 9 10 11 12 13 14 15 16 17 18 19 20
716
FTUS42 KJAX 011720
TAFCRG
TAF
KCRG 011720Z 0118/0218 11012KT P6SM SCT045 BKN250
     FM020300 15006KT P6SM FEW050 SCT250
     FM020800 18003KT P6SM FEW010 SCT250=

USA.gov is the U.S. government's official web portal to all federal, state and local government web resources and services.